メインページ
METAR-TAF:

METAR-TAF

空港 :

大阪国際空港

大阪, 日本

緯度: 34-47N, 経度: 135-27E, 海抜: 12m

現時点の気象観測

当レポートは55分前の11:00(UTC)に作成
北東の風 8kt、から東/北東の間で変化する
気温 20°C
湿度 49%
気圧 1019 hPa
視程10km以上
高度3000ftの雲はほとんどない
千切れ雲あり

METAR: RJOO 201100Z 05008KT 010V070 9999 FEW030 BKN/// 20/09 Q1019

時間: 20:55 (11:55 UTC)

予報

当レポートは47分前の11:08(UTC)に作成
予報は20日の 12時(UTC)から 21日の 18時(UTC)まで有効
東/北東の風 7kt
視程10km以上
高度3500ftの雲はほとんどない

TAF: RJOO 201108Z 2012/2118 07007KT 9999 FEW035

4,000以上の空港の気象観測と天気予報(METAR報とTAF報)

利用可能な観測所は地図上に黄色い丸と赤い丸で示す。

丸の上にカーソルを重ねると観測所名を参照できる。

次にクリックすると気象観測と天気予報を参照できる。

マップの切り替え:黒色「×」印の緑ボタンをクリックして拡大、「-」印の緑ボタンをクリックして縮小、緑色の三角印をクリックして隣りの地図に切り替え


METAR-TAF: